createdAt,value
2018-04-15T00:01:35.389Z,12.10
2018-04-15T00:04:03.713Z,12.00
2018-04-15T00:06:31.255Z,11.90
2018-04-15T00:08:58.765Z,12.00
2018-04-15T00:11:26.290Z,11.90
2018-04-15T00:13:53.789Z,11.90
2018-04-15T00:16:21.312Z,12.00
2018-04-15T00:18:48.840Z,12.00
2018-04-15T00:21:17.119Z,11.90
2018-04-15T00:23:47.143Z,11.80
2018-04-15T00:26:14.664Z,11.80
2018-04-15T00:28:42.177Z,11.80
2018-04-15T00:33:44.235Z,11.80
2018-04-15T00:36:11.773Z,11.80
2018-04-15T00:38:39.318Z,11.80
2018-04-15T00:41:06.837Z,11.70
2018-04-15T00:43:34.347Z,11.80
2018-04-15T00:46:01.856Z,11.80
2018-04-15T00:48:29.398Z,11.70
2018-04-15T00:50:56.905Z,11.60
2018-04-15T00:53:25.219Z,11.60
2018-04-15T00:55:52.768Z,11.50
2018-04-15T00:58:21.055Z,11.50
2018-04-15T01:00:49.331Z,11.50
2018-04-15T01:03:17.761Z,11.40
2018-04-15T01:05:45.322Z,11.30
2018-04-15T01:08:13.189Z,11.40
2018-04-15T01:10:40.721Z,11.40
2018-04-15T01:13:08.994Z,11.30
2018-04-15T01:15:37.268Z,11.30
2018-04-15T01:18:05.562Z,11.30
2018-04-15T01:20:33.862Z,11.20
2018-04-15T01:23:01.381Z,11.20
2018-04-15T01:25:29.686Z,11.10
2018-04-15T01:27:57.975Z,11.10
2018-04-15T01:30:25.490Z,11.00
2018-04-15T01:32:53.051Z,11.10
2018-04-15T01:35:20.559Z,11.10
2018-04-15T01:37:48.849Z,10.90
2018-04-15T01:40:16.388Z,10.90
2018-04-15T01:42:44.664Z,10.90
2018-04-15T01:45:13.682Z,10.90
2018-04-15T01:47:41.983Z,11.00
2018-04-15T01:50:09.514Z,11.00
2018-04-15T01:52:37.793Z,11.00
2018-04-15T01:55:05.350Z,10.90
2018-04-15T01:57:34.369Z,10.80
2018-04-15T02:00:02.649Z,10.80
2018-04-15T02:02:30.954Z,10.80
2018-04-15T02:04:58.535Z,10.70
2018-04-15T02:07:26.043Z,10.80
2018-04-15T02:09:54.358Z,10.70
2018-04-15T02:12:21.928Z,10.60
2018-04-15T02:14:49.437Z,10.60
2018-04-15T02:17:16.965Z,10.70
2018-04-15T02:19:44.480Z,10.70
2018-04-15T02:22:12.777Z,10.50
2018-04-15T02:24:41.079Z,10.50
2018-04-15T02:27:08.593Z,10.50
2018-04-15T02:29:36.196Z,10.30
2018-04-15T02:32:04.509Z,10.40
2018-04-15T02:34:32.029Z,10.40
2018-04-15T02:37:00.321Z,10.40
2018-04-15T02:39:28.605Z,10.30
2018-04-15T02:41:56.883Z,10.30
2018-04-15T02:44:25.174Z,10.10
2018-04-15T02:46:53.572Z,10.20
2018-04-15T02:49:21.090Z,10.10
2018-04-15T02:51:49.373Z,10.10
2018-04-15T02:54:17.683Z,10.10
2018-04-15T02:56:45.957Z,10.10
2018-04-15T02:59:14.231Z,10.10
2018-04-15T03:01:42.525Z,10.10
2018-04-15T03:04:10.929Z,10.10
2018-04-15T03:06:38.479Z,10.10
2018-04-15T03:09:06.014Z,10.10
2018-04-15T03:11:33.579Z,10.10
2018-04-15T03:14:01.117Z,10.10
2018-04-15T03:16:28.656Z,10.30
2018-04-15T03:18:56.161Z,10.20
2018-04-15T03:21:23.665Z,10.20
2018-04-15T03:23:51.199Z,10.20
2018-04-15T03:26:19.474Z,10.10
2018-04-15T03:28:46.988Z,10.10
2018-04-15T03:31:14.513Z,10.10
2018-04-15T03:33:42.023Z,10.10
2018-04-15T03:36:09.530Z,10.10
2018-04-15T03:38:37.077Z,10.10
2018-04-15T03:41:04.590Z,10.10
2018-04-15T03:43:32.866Z,10.00
2018-04-15T03:46:01.266Z,10.00
2018-04-15T03:48:28.768Z,9.90
2018-04-15T03:50:56.269Z,9.90
2018-04-15T03:53:24.575Z,9.90
2018-04-15T03:55:52.131Z,9.80
2018-04-15T03:58:20.402Z,9.90
2018-04-15T04:00:48.706Z,9.90
2018-04-15T04:03:16.265Z,9.90
2018-04-15T04:05:43.770Z,9.90
2018-04-15T04:08:11.297Z,9.90
2018-04-15T04:10:39.761Z,10.00
2018-04-15T04:13:08.077Z,9.90
2018-04-15T04:15:35.640Z,9.90
2018-04-15T04:18:15.059Z,9.90
2018-04-15T04:20:54.561Z,9.90
2018-04-15T04:23:33.986Z,9.90
2018-04-15T04:26:04.433Z,9.80
2018-04-15T04:28:32.710Z,9.80
2018-04-15T04:31:00.210Z,9.70
2018-04-15T04:33:27.741Z,9.80
2018-04-15T04:35:55.250Z,9.90
2018-04-15T04:38:22.773Z,9.80
2018-04-15T04:40:51.068Z,9.80
2018-04-15T04:43:18.585Z,9.70
2018-04-15T04:45:46.138Z,9.80
2018-04-15T04:48:13.657Z,9.80
2018-04-15T04:50:41.164Z,9.90
2018-04-15T04:53:08.681Z,9.90
2018-04-15T04:55:36.981Z,9.90
2018-04-15T04:58:04.518Z,9.90
2018-04-15T05:00:32.808Z,10.00
2018-04-15T05:03:01.104Z,10.00
2018-04-15T05:05:28.618Z,9.90
2018-04-15T05:07:56.145Z,10.00
2018-04-15T05:10:23.669Z,10.10
2018-04-15T05:12:51.940Z,10.20
2018-04-15T05:15:20.613Z,10.30
2018-04-15T05:17:48.913Z,10.20
2018-04-15T05:20:17.916Z,10.30
2018-04-15T05:22:45.429Z,10.30
2018-04-15T05:25:12.978Z,10.40
2018-04-15T05:27:40.480Z,10.40
2018-04-15T05:30:07.997Z,10.40
2018-04-15T05:32:35.514Z,10.40
2018-04-15T05:35:03.021Z,10.30
2018-04-15T05:37:30.594Z,10.40
2018-04-15T05:39:58.874Z,10.70
2018-04-15T05:42:26.385Z,10.60
2018-04-15T05:44:53.897Z,10.70
2018-04-15T05:47:21.433Z,10.80
2018-04-15T05:49:48.942Z,10.80
2018-04-15T05:52:16.452Z,10.80
2018-04-15T05:54:44.804Z,10.90
2018-04-15T05:57:12.308Z,10.80
2018-04-15T05:59:40.586Z,11.00
2018-04-15T06:02:09.623Z,11.10
2018-04-15T06:04:37.177Z,11.10
2018-04-15T06:07:04.695Z,11.20
2018-04-15T06:09:32.233Z,11.30
2018-04-15T06:11:59.790Z,11.30
2018-04-15T06:14:27.305Z,11.30
2018-04-15T06:16:55.695Z,11.30
2018-04-15T06:19:23.989Z,11.30
2018-04-15T06:21:52.311Z,11.40
2018-04-15T06:24:19.856Z,11.30
2018-04-15T06:26:47.361Z,11.40
2018-04-15T06:29:14.877Z,11.30
2018-04-15T06:31:42.405Z,11.40
2018-04-15T06:34:10.719Z,11.30
2018-04-15T06:36:38.303Z,11.20
2018-04-15T06:39:05.831Z,11.40
2018-04-15T06:41:34.138Z,11.50
2018-04-15T06:44:01.665Z,11.40
2018-04-15T06:46:29.230Z,11.50
2018-04-15T06:48:56.741Z,11.50
2018-04-15T06:51:24.269Z,11.60
2018-04-15T06:53:52.565Z,11.80
2018-04-15T06:56:20.842Z,12.00
2018-04-15T06:58:49.129Z,12.10
2018-04-15T07:01:16.653Z,12.10
2018-04-15T07:03:44.162Z,12.20
2018-04-15T07:06:11.835Z,12.30
2018-04-15T07:08:39.372Z,12.40
2018-04-15T07:11:07.654Z,12.50
2018-04-15T07:13:35.951Z,12.50
2018-04-15T07:16:03.798Z,12.50
2018-04-15T07:18:31.585Z,12.50
2018-04-15T07:21:00.021Z,12.30
2018-04-15T07:23:27.567Z,12.20
2018-04-15T07:25:55.086Z,12.40
2018-04-15T07:28:23.357Z,12.40
2018-04-15T07:30:51.674Z,12.50
2018-04-15T07:33:20.117Z,12.50
2018-04-15T07:35:48.112Z,12.80
2018-04-15T07:38:16.410Z,12.80
2018-04-15T07:40:43.970Z,12.80
2018-04-15T07:43:11.647Z,13.00
2018-04-15T07:45:39.401Z,12.90
2018-04-15T07:48:06.939Z,13.20
2018-04-15T07:50:34.509Z,13.30
2018-04-15T07:53:03.598Z,13.60
2018-04-15T07:55:31.140Z,13.60
2018-04-15T07:57:58.678Z,13.70
2018-04-15T08:00:26.207Z,13.80
2018-04-15T08:02:53.855Z,13.70
2018-04-15T08:05:22.248Z,14.20
2018-04-15T08:07:49.794Z,14.20
2018-04-15T08:10:17.315Z,14.50
2018-04-15T08:12:45.337Z,14.70
2018-04-15T08:15:12.924Z,14.80
2018-04-15T08:17:40.442Z,14.90
2018-04-15T08:20:08.246Z,15.00
2018-04-15T08:22:35.777Z,15.10
2018-04-15T08:25:03.289Z,15.30
2018-04-15T08:27:31.606Z,15.20
2018-04-15T08:29:59.233Z,15.20
2018-04-15T08:32:26.755Z,15.40
2018-04-15T08:34:54.264Z,15.60
2018-04-15T08:37:22.557Z,16.60
2018-04-15T08:39:50.905Z,16.70
2018-04-15T08:42:18.436Z,16.60
2018-04-15T08:44:45.993Z,17.40
2018-04-15T08:47:13.513Z,18.40
2018-04-15T08:49:43.305Z,18.20
2018-04-15T08:52:10.839Z,18.20
2018-04-15T08:54:38.377Z,17.90
2018-04-15T08:57:06.653Z,18.40
2018-04-15T08:59:34.956Z,18.40
2018-04-15T09:02:02.478Z,18.30
2018-04-15T09:04:30.806Z,18.00
2018-04-15T09:06:58.342Z,17.90
2018-04-15T09:09:26.684Z,18.20
2018-04-15T09:11:54.215Z,18.10
2018-04-15T09:14:21.769Z,18.10
2018-04-15T09:16:50.045Z,18.90
2018-04-15T09:19:18.330Z,19.10
2018-04-15T09:21:46.010Z,19.00
2018-04-15T09:24:13.517Z,19.40
2018-04-15T09:26:41.035Z,19.50
2018-04-15T09:29:08.581Z,19.50
2018-04-15T09:31:36.871Z,19.60
2018-04-15T09:34:04.392Z,19.50
2018-04-15T09:36:31.932Z,19.10
2018-04-15T09:38:59.472Z,18.90
2018-04-15T09:41:27.001Z,18.60
2018-04-15T09:43:54.520Z,18.50
2018-04-15T09:46:22.035Z,18.70
2018-04-15T09:48:50.323Z,19.50
2018-04-15T09:51:18.649Z,20.50
2018-04-15T09:53:46.175Z,20.40
2018-04-15T09:56:13.681Z,20.40
2018-04-15T09:58:41.224Z,21.00
2018-04-15T10:01:08.745Z,22.10
2018-04-15T10:03:37.025Z,23.10
2018-04-15T10:06:04.576Z,23.00
2018-04-15T10:08:32.098Z,22.70
2018-04-15T10:10:59.616Z,23.30
2018-04-15T10:13:27.253Z,23.60
2018-04-15T10:15:54.769Z,23.30
2018-04-15T10:18:24.056Z,23.90
2018-04-15T10:20:52.381Z,25.50
2018-04-15T10:23:19.981Z,25.40
2018-04-15T10:25:47.499Z,25.90
2018-04-15T10:28:15.039Z,25.60
2018-04-15T10:30:43.353Z,26.70
2018-04-15T10:33:10.857Z,26.60
2018-04-15T10:35:39.203Z,25.60
2018-04-15T10:38:06.726Z,25.50
2018-04-15T10:40:35.006Z,24.50
2018-04-15T10:43:03.313Z,24.60
2018-04-15T10:45:30.848Z,24.60
2018-04-15T10:47:59.149Z,26.20
2018-04-15T10:50:27.444Z,25.90
2018-04-15T10:52:54.965Z,25.80
2018-04-15T10:55:23.241Z,25.40
2018-04-15T10:57:50.783Z,25.30
2018-04-15T11:00:18.290Z,24.60
2018-04-15T11:02:46.585Z,23.70
2018-04-15T11:05:14.879Z,23.10
2018-04-15T11:07:42.402Z,23.10
2018-04-15T11:10:10.706Z,24.90
2018-04-15T11:12:39.007Z,26.10
2018-04-15T11:15:06.509Z,26.00
2018-04-15T11:17:34.034Z,26.40
2018-04-15T11:20:01.591Z,26.50
2018-04-15T11:22:29.865Z,26.80
2018-04-15T11:24:58.174Z,26.40
2018-04-15T11:27:25.718Z,26.40
2018-04-15T11:29:54.005Z,25.40
2018-04-15T11:32:21.524Z,25.30
2018-04-15T11:34:49.834Z,24.90
2018-04-15T11:37:18.117Z,25.90
2018-04-15T11:39:46.417Z,27.30
2018-04-15T11:42:13.953Z,27.20
2018-04-15T11:44:42.229Z,29.80
2018-04-15T11:49:45.580Z,29.40
2018-04-15T11:52:13.090Z,30.70
2018-04-15T11:54:41.461Z,32.40
2018-04-15T11:57:09.029Z,32.70
2018-04-15T11:59:36.560Z,31.30
2018-04-15T12:02:04.077Z,29.50
2018-04-15T12:04:33.287Z,29.80
2018-04-15T12:07:00.800Z,29.80
2018-04-15T12:09:28.323Z,28.30
2018-04-15T12:11:56.617Z,25.90
2018-04-15T12:14:24.902Z,25.40
2018-04-15T12:16:52.465Z,25.30
2018-04-15T12:19:20.785Z,24.20
2018-04-15T12:21:48.285Z,24.10
2018-04-15T12:24:15.804Z,23.20
2018-04-15T12:26:43.500Z,22.60
2018-04-15T12:29:12.558Z,22.00
2018-04-15T12:31:40.126Z,22.00
2018-04-15T12:34:07.681Z,21.90
2018-04-15T12:36:35.224Z,21.30
2018-04-15T12:39:03.522Z,21.10
2018-04-15T12:41:31.821Z,21.00
2018-04-15T12:43:59.354Z,21.00
2018-04-15T12:46:27.649Z,21.00
2018-04-15T12:48:55.177Z,21.00
2018-04-15T12:51:23.492Z,21.90
2018-04-15T12:53:51.765Z,21.70
2018-04-15T12:56:20.070Z,21.90
2018-04-15T12:58:47.592Z,21.80
2018-04-15T13:01:15.151Z,21.80
2018-04-15T13:03:42.681Z,21.90
2018-04-15T13:06:10.220Z,21.90
2018-04-15T13:08:37.735Z,21.90
2018-04-15T13:11:06.184Z,21.80
2018-04-15T13:13:33.733Z,21.70
2018-04-15T13:16:01.239Z,21.60
2018-04-15T13:18:28.787Z,21.40
2018-04-15T13:20:56.291Z,21.20
2018-04-15T13:23:24.593Z,21.60
2018-04-15T13:25:52.915Z,21.80
2018-04-15T13:28:20.620Z,21.80
2018-04-15T13:30:49.671Z,21.80
2018-04-15T13:33:17.193Z,21.80
2018-04-15T13:35:44.705Z,22.00
2018-04-15T13:38:12.209Z,22.00
2018-04-15T13:40:40.514Z,21.80
2018-04-15T13:43:08.790Z,21.50
2018-04-15T13:45:37.101Z,21.60
2018-04-15T13:48:04.674Z,21.50
2018-04-15T13:50:32.231Z,21.90
2018-04-15T13:52:59.758Z,21.80
2018-04-15T13:55:28.090Z,22.10
2018-04-15T13:57:55.663Z,22.10
2018-04-15T14:00:23.192Z,22.20
2018-04-15T14:02:50.723Z,22.30
2018-04-15T14:05:19.140Z,21.90
2018-04-15T14:07:46.684Z,21.80
2018-04-15T14:10:14.976Z,21.50
2018-04-15T14:12:43.258Z,21.60
2018-04-15T14:15:11.534Z,21.50
2018-04-15T14:17:39.845Z,21.20
2018-04-15T14:20:07.380Z,21.20
2018-04-15T14:22:35.656Z,21.30
2018-04-15T14:25:03.282Z,21.20
2018-04-15T14:27:30.793Z,21.50
2018-04-15T14:29:59.972Z,21.50
2018-04-15T14:32:27.533Z,21.50
2018-04-15T14:34:55.038Z,21.50
2018-04-15T14:37:22.546Z,21.50
2018-04-15T14:39:50.075Z,21.30
2018-04-15T14:42:17.615Z,21.30
2018-04-15T14:44:45.908Z,21.10
2018-04-15T14:47:13.462Z,21.10
2018-04-15T14:49:41.745Z,20.80
2018-04-15T14:52:10.021Z,20.80
2018-04-15T14:54:38.326Z,20.70
2018-04-15T14:57:05.833Z,20.60
2018-04-15T14:59:33.338Z,20.60
2018-04-15T15:02:01.762Z,20.60
2018-04-15T15:04:29.278Z,20.50
2018-04-15T15:06:57.556Z,20.60
2018-04-15T15:09:25.903Z,20.60
2018-04-15T15:11:53.437Z,20.50
2018-04-15T15:14:21.837Z,20.70
2018-04-15T15:16:49.437Z,20.60
2018-04-15T15:19:18.498Z,20.80
2018-04-15T15:21:46.017Z,20.80
2018-04-15T15:24:14.323Z,21.00
2018-04-15T15:26:41.886Z,21.00
2018-04-15T15:29:09.484Z,21.20
2018-04-15T15:31:38.228Z,21.10
2018-04-15T15:34:05.857Z,21.20
2018-04-15T15:36:33.371Z,21.20
2018-04-15T15:39:00.924Z,21.30
2018-04-15T15:41:29.221Z,21.00
2018-04-15T15:43:56.744Z,21.00
2018-04-15T15:46:25.070Z,20.80
2018-04-15T15:48:52.591Z,20.70
2018-04-15T15:51:20.888Z,20.60
2018-04-15T15:53:49.227Z,20.50
2018-04-15T15:56:16.773Z,20.40
2018-04-15T15:58:44.279Z,20.30
2018-04-15T16:01:12.590Z,20.10
2018-04-15T16:03:40.869Z,20.10
2018-04-15T16:06:09.148Z,20.00
2018-04-15T16:08:37.455Z,20.00
2018-04-15T16:11:04.965Z,20.00
2018-04-15T16:13:32.480Z,19.90
2018-04-15T16:16:00.018Z,19.90
2018-04-15T16:18:28.303Z,19.80
2018-04-15T16:20:56.580Z,19.90
2018-04-15T16:23:24.901Z,19.70
2018-04-15T16:25:52.413Z,19.70
2018-04-15T16:28:20.130Z,19.70
2018-04-15T16:30:47.674Z,19.60
2018-04-15T16:33:15.397Z,19.70
2018-04-15T16:35:43.010Z,19.60
2018-04-15T16:38:10.557Z,19.50
2018-04-15T16:40:38.832Z,19.40
2018-04-15T16:43:07.101Z,19.30
2018-04-15T16:45:35.401Z,19.40
2018-04-15T16:48:03.686Z,19.40
2018-04-15T16:50:31.988Z,19.30
2018-04-15T16:52:59.574Z,19.30
2018-04-15T16:55:27.117Z,19.20
2018-04-15T16:57:54.616Z,19.20
2018-04-15T17:00:22.158Z,19.20
2018-04-15T17:02:49.770Z,19.20
2018-04-15T17:05:18.046Z,19.20
2018-04-15T17:07:46.353Z,19.10
2018-04-15T17:10:14.624Z,19.10
2018-04-15T17:12:42.897Z,19.10
2018-04-15T17:15:11.954Z,18.90
2018-04-15T17:17:39.477Z,18.90
2018-04-15T17:20:07.770Z,18.90
2018-04-15T17:22:35.392Z,18.80
2018-04-15T17:25:02.838Z,18.80
2018-04-15T17:27:30.341Z,18.70
2018-04-15T17:29:58.756Z,18.60
2018-04-15T17:32:26.294Z,18.60
2018-04-15T17:34:55.632Z,18.50
2018-04-15T17:37:23.169Z,18.50
2018-04-15T17:39:51.446Z,18.50
2018-04-15T17:42:19.927Z,18.50
2018-04-15T17:44:48.231Z,18.40
2018-04-15T17:47:15.748Z,18.40
2018-04-15T17:49:43.272Z,18.40
2018-04-15T17:52:10.814Z,18.30
2018-04-15T17:54:39.126Z,18.30
2018-04-15T17:57:06.637Z,18.20
2018-04-15T17:59:35.952Z,18.10
2018-04-15T18:02:04.265Z,18.20
2018-04-15T18:04:31.781Z,18.10
2018-04-15T18:07:00.105Z,18.10
2018-04-15T18:09:27.637Z,18.10
2018-04-15T18:11:55.985Z,18.10
2018-04-15T18:14:23.517Z,18.00
2018-04-15T18:16:51.035Z,18.00
2018-04-15T18:19:18.569Z,18.00
2018-04-15T18:21:46.209Z,17.90
2018-04-15T18:24:13.706Z,17.90
2018-04-15T18:26:41.213Z,17.90
2018-04-15T18:29:08.794Z,17.90
2018-04-15T18:31:36.319Z,17.90
2018-04-15T18:34:03.945Z,17.70
2018-04-15T18:36:31.607Z,17.70
2018-04-15T18:38:59.126Z,17.70
2018-04-15T18:41:27.428Z,17.60
2018-04-15T18:43:55.732Z,17.60
2018-04-15T18:46:23.245Z,17.60
2018-04-15T18:48:51.583Z,17.70
2018-04-15T18:51:19.123Z,17.70
2018-04-15T18:53:47.397Z,17.60
2018-04-15T18:56:15.675Z,17.50
2018-04-15T18:58:43.968Z,17.50
2018-04-15T19:01:12.257Z,17.60
2018-04-15T19:03:39.773Z,17.50
2018-04-15T19:06:07.347Z,17.60
2018-04-15T19:08:34.859Z,17.50
2018-04-15T19:11:02.854Z,17.40
2018-04-15T19:13:30.384Z,17.40
2018-04-15T19:15:57.976Z,17.40
2018-04-15T19:18:25.484Z,17.40
2018-04-15T19:20:53.196Z,17.40
2018-04-15T19:23:20.759Z,17.50
2018-04-15T19:25:48.285Z,17.40
2018-04-15T19:28:16.593Z,17.30
2018-04-15T19:30:44.116Z,17.30
2018-04-15T19:33:13.138Z,17.40
2018-04-15T19:35:41.437Z,17.30
2018-04-15T19:38:09.792Z,17.20
2018-04-15T19:40:37.337Z,17.30
2018-04-15T19:43:04.867Z,17.20
2018-04-15T19:45:32.411Z,17.20
2018-04-15T19:47:59.931Z,17.20
2018-04-15T19:50:27.462Z,17.20
2018-04-15T19:52:54.990Z,17.20
2018-04-15T19:55:23.273Z,17.20
2018-04-15T19:57:51.583Z,17.20
2018-04-15T20:00:19.119Z,17.20
2018-04-15T20:02:47.454Z,17.10
2018-04-15T20:05:14.981Z,17.10
2018-04-15T20:07:42.769Z,17.10
2018-04-15T20:10:10.291Z,17.10
2018-04-15T20:12:38.605Z,17.10
2018-04-15T20:17:34.878Z,17.10
2018-04-15T20:20:02.437Z,17.20
2018-04-15T20:22:29.954Z,17.20
2018-04-15T20:24:58.253Z,17.20
2018-04-15T20:27:26.579Z,17.20
2018-04-15T20:29:54.083Z,17.10
2018-04-15T20:32:21.623Z,17.10
2018-04-15T20:34:49.162Z,17.10
2018-04-15T20:37:16.711Z,17.10
2018-04-15T20:39:44.428Z,17.10
2018-04-15T20:42:13.482Z,16.90
2018-04-15T20:44:41.029Z,16.90
2018-04-15T20:47:08.693Z,16.80
2018-04-15T20:49:36.501Z,16.90
2018-04-15T20:52:04.176Z,16.70
2018-04-15T20:54:32.545Z,16.70
2018-04-15T20:57:00.504Z,16.60
2018-04-15T20:59:29.906Z,16.50
2018-04-15T21:01:57.461Z,16.50
2018-04-15T21:04:25.026Z,16.40
2018-04-15T21:06:52.544Z,16.40
2018-04-15T21:09:20.066Z,16.40
2018-04-15T21:11:47.601Z,16.30
2018-04-15T21:14:15.875Z,16.40
2018-04-15T21:16:43.492Z,16.30
2018-04-15T21:19:11.026Z,16.40
2018-04-15T21:21:39.296Z,16.10
2018-04-15T21:24:07.605Z,16.10
2018-04-15T21:26:35.133Z,16.00
2018-04-15T21:29:02.644Z,15.90
2018-04-15T21:31:30.203Z,15.90
2018-04-15T21:33:57.766Z,15.90
2018-04-15T21:36:25.273Z,16.10
2018-04-15T21:38:52.784Z,15.90
2018-04-15T21:41:20.353Z,15.90
2018-04-15T21:43:47.865Z,15.90
2018-04-15T21:46:16.142Z,15.80
2018-04-15T21:48:43.673Z,15.70
2018-04-15T21:51:11.202Z,15.70
2018-04-15T21:53:39.491Z,15.80
2018-04-15T21:56:07.037Z,15.70
2018-04-15T21:58:35.308Z,15.70
2018-04-15T22:01:02.873Z,15.60
2018-04-15T22:03:31.179Z,15.60
2018-04-15T22:05:59.457Z,15.50
2018-04-15T22:08:27.735Z,15.50
2018-04-15T22:10:56.067Z,15.50
2018-04-15T22:13:23.569Z,15.40
2018-04-15T22:15:52.163Z,15.40
2018-04-15T22:18:19.698Z,15.30
2018-04-15T22:20:47.269Z,15.30
2018-04-15T22:23:14.787Z,15.20
2018-04-15T22:25:42.309Z,15.10
2018-04-15T22:28:09.910Z,15.10
2018-04-15T22:30:37.425Z,15.10
2018-04-15T22:33:04.989Z,15.00
2018-04-15T22:35:32.517Z,15.00
2018-04-15T22:38:00.042Z,15.00
2018-04-15T22:40:28.325Z,15.00
2018-04-15T22:42:56.685Z,15.00
2018-04-15T22:45:24.189Z,14.90
2018-04-15T22:47:57.472Z,15.00
2018-04-15T22:50:31.584Z,14.90
2018-04-15T22:52:59.871Z,15.00
2018-04-15T22:55:28.175Z,15.00
2018-04-15T22:57:55.694Z,14.90
2018-04-15T23:00:23.221Z,15.00
2018-04-15T23:02:50.749Z,14.90
2018-04-15T23:05:19.026Z,14.90
2018-04-15T23:07:47.335Z,14.90
2018-04-15T23:10:14.861Z,14.90
2018-04-15T23:12:43.143Z,14.80
2018-04-15T23:15:11.455Z,14.70
2018-04-15T23:17:38.965Z,14.60
2018-04-15T23:20:07.993Z,14.70
2018-04-15T23:22:36.313Z,14.80
2018-04-15T23:25:03.837Z,14.80
2018-04-15T23:27:33.167Z,14.80
2018-04-15T23:30:00.700Z,14.80
2018-04-15T23:32:29.071Z,14.70
2018-04-15T23:34:58.125Z,14.70
2018-04-15T23:37:25.657Z,14.70
2018-04-15T23:39:53.933Z,14.70
2018-04-15T23:42:22.212Z,14.60
2018-04-15T23:44:49.942Z,14.60
2018-04-15T23:47:17.458Z,14.50
2018-04-15T23:49:44.966Z,14.50
2018-04-15T23:52:12.507Z,14.60
2018-04-15T23:54:40.027Z,14.60
2018-04-15T23:57:08.313Z,14.60
2018-04-15T23:59:36.639Z,14.70
